ADDS METAR Data INFO
IDs: Format: Raw Decoded Include TAF

Data at: 0143 UTC 26 Feb 2018

KCGS 260138Z AUTO 00000KT 1 3/4SM VV007 10/10 A3002 RMK AO1 T00980095
KCGS 260118Z AUTO 00000KT 3SM CLR 10/09 A3001 RMK AO1 T00980093
KCGS 260058Z AUTO 00000KT 5SM SCT007 11/10 A3001 RMK AO1 T01050098
KCGS 260038Z AUTO 00000KT 5SM OVC007 11/10 A3000 RMK AO1 T01070100
KCGS 260018Z AUTO 00000KT 5SM OVC007 11/10 A2999 RMK AO1 T01050098
KCGS 252358Z AUTO 00000KT 5SM BKN007 11/10 A3000 RMK AO1 T01050098
KCGS 252338Z AUTO 00000KT 5SM OVC007 11/10 A2999 RMK AO1 T01050098
KCGS 252318Z AUTO 00000KT 5SM BKN007 10/10 A2998 RMK AO1 T01020096
KCGS 252258Z AUTO 00000KT 7SM SCT007 SCT070 11/10 A2995 RMK AO1 T01100098
KCGS 252238Z AUTO 00000KT 7SM OVC009 11/10 A2996 RMK AO1 T01100096
KCGS 252218Z AUTO 00000KT 5SM OVC009 11/10 A2995 RMK AO1 T01100097
KCGS 252158Z AUTO 00000KT 5SM OVC007 11/10 A2995 RMK AO1 T01110097
KCGS 252138Z AUTO 00000KT 5SM OVC007 11/10 A2995 RMK AO1 T01120097
KCGS 252118Z AUTO 00000KT 7SM OVC007 11/10 A2996 RMK AO1 T01110097
KCGS 252058Z AUTO 00000KT 7SM OVC007 11/10 A2996 RMK AO1 T01100097
KCGS 252038Z AUTO 00000KT 7SM OVC007 11/10 A2996 RMK AO1 T01100095
KCGS 252018Z AUTO 00000KT 7SM OVC007 11/09 A2996 RMK AO1 T01060092
KCGS 251958Z AUTO 00000KT 7SM OVC007 11/09 A2996 RMK AO1 T01050091
KCGS 251938Z AUTO 00000KT 7SM OVC007 10/09 A2996 RMK AO1 T01020090
KCGS 251918Z AUTO 00000KT 7SM OVC007 10/09 A2995 RMK AO1 T01010088
KCGS 251858Z AUTO 28003KT 7SM OVC007 10/09 A2997 RMK AO1 T01000089
KCGS 251838Z AUTO 00000KT 10SM OVC007 10/09 A2993 RMK AO1 T00980085
KCGS 251818Z AUTO 00000KT 10SM OVC007 10/08 A2996 RMK AO1 T00970084
KCGS 251758Z AUTO 00000KT 10SM OVC007 10/09 A2997 RMK AO1 T00950085
KCGS 251738Z AUTO 00000KT 10SM OVC007 09/08 A2994 RMK AO1 T00910081
KCGS 251718Z AUTO 00000KT 10SM OVC007 09/08 A2995 RMK AO1 T00910082
KCGS 251658Z AUTO 10004KT 10SM OVC007 09/08 A2991 RMK AO1 T00890079
KCGS 251638Z AUTO 00000KT 10SM OVC007 09/08 A2994 RMK AO1 T00870077
KCGS 251618Z AUTO 00000KT 10SM BKN007 OVC100 09/08 A2995 RMK AO1 T00870077
KCGS 251558Z AUTO 12004KT 10SM SCT005 SCT026 OVC100 09/08 A2996 RMK AO1 T00870077
KCGS 251538Z AUTO 00000KT 10SM SCT005 SCT027 OVC110 09/08 A2998 RMK AO1 T00880079
KCGS 251518Z AUTO 00000KT 10SM SCT005 BKN085 BKN110 09/08 A2999 RMK AO1 T00870075
KCGS 251458Z AUTO 00000KT 10SM SCT005 BKN095 09/08 A2999 RMK AO1 T00860076
KCGS 251438Z AUTO 00000KT 10SM SCT003 SCT033 OVC085 09/08 A2999 RMK AO1 T00850075
KCGS 251418Z AUTO 00000KT 7SM SCT080 BKN085 08/07 A3001 RMK AO1 T00810074
KCGS 251358Z AUTO 00000KT 4SM SCT006 BKN013 OVC070 08/07 A3001 RMK AO1 T00790074
KCGS 251338Z AUTO 31005G08KT 5SM OVC004 08/08 A3004 RMK AO1 T00770075
KCGS 251318Z AUTO 00000KT 1 1/4SM OVC002 08/07 A2999 RMK AO1 T00750073
KCGS 251258Z AUTO 00000KT 1SM OVC002 08/07 A2997 RMK AO1 T00750073
KCGS 251238Z AUTO 00000KT 1SM OVC002 08/07 A2997 RMK AO1 T00750073
KCGS 251218Z AUTO 00000KT 1 1/4SM OVC002 08/07 A2997 RMK AO1 T00750072
KCGS 251158Z AUTO 00000KT 1SM OVC002 08/07 A2997 RMK AO1 T00750071
KCGS 251138Z AUTO 10003KT 1SM OVC002 08/07 A2997 RMK AO1 T00750071
KCGS 251118Z AUTO 10004KT 1 1/4SM OVC002 08/07 A2998 RMK AO1 T00750071
KCGS 251058Z AUTO 00000KT 1 3/4SM OVC002 08/07 A2999 RMK AO1 T00750071
KCGS 251038Z AUTO 00000KT 1 3/4SM OVC004 08/07 A2999 RMK AO1 T00750071
KCGS 250958Z AUTO 00000KT 1 3/4SM OVC004 08/07 A3000 RMK AO1 T00750070
KCGS 250938Z AUTO 00000KT 2SM OVC004 08/07 A3002 RMK AO1 T00760071
KCGS 250918Z AUTO 00000KT 2 1/2SM OVC004 08/07 A3003 RMK AO1 T00770072
KCGS 250838Z AUTO 00000KT 2 1/2SM OVC006 08/07 A3003 RMK AO1 T00790071
KCGS 250818Z AUTO 06003KT 3SM OVC008 08/07 A3004 RMK AO1 T00800071
KCGS 250758Z AUTO 00000KT 5SM OVC008 08/07 A3004 RMK AO1 T00810070
KCGS 250738Z AUTO 00000KT 5SM OVC008 08/07 A3005 RMK AO1 T00810070
KCGS 250718Z AUTO 00000KT 5SM OVC010 08/07 A3005 RMK AO1 T00800070
KCGS 250658Z AUTO 00000KT 5SM OVC010 08/07 A3007 RMK AO1 T00810071
KCGS 250638Z AUTO 00000KT 5SM OVC008 08/07 A3008 RMK AO1 T00810071
KCGS 250618Z AUTO 00000KT 5SM BKN010 OVC019 08/07 A3009 RMK AO1 T00810072
KCGS 250558Z AUTO 08004KT 4SM SCT009 OVC019 08/07 A3009 RMK AO1 T00820072
KCGS 250538Z AUTO 06003KT 5SM SCT007 OVC019 08/07 A3010 RMK AO1 T00820072
KCGS 250518Z AUTO 00000KT 5SM SCT007 BKN017 OVC031 08/07 A3011 RMK AO1 T00820072
KCGS 250458Z AUTO 00000KT 4SM BKN017 BKN026 OVC033 08/07 A3012 RMK AO1 T00830073
KCGS 250438Z AUTO 00000KT 7SM OVC019 09/07 A3012 RMK AO1 T00850071
KCGS 250418Z AUTO 05003KT 7SM OVC019 09/07 A3012 RMK AO1 T00850071
KCGS 250358Z AUTO 00000KT 5SM OVC019 09/07 A3013 RMK AO1 T00850071
KCGS 250338Z AUTO 00000KT 7SM OVC017 09/07 A3015 RMK AO1 T00850071
KCGS 250318Z AUTO 00000KT 4SM OVC015 09/07 A3015 RMK AO1 T00870070
KCGS 250258Z AUTO 02004KT 7SM OVC017 09/07 A3015 RMK AO1 T00890070
KCGS 250218Z AUTO 04003KT 7SM OVC019 09/07 A3015 RMK AO1 T00890071
KCGS 250158Z AUTO 00000KT 7SM OVC019 09/07 A3015 RMK AO1 T00900071
KCGS 250138Z AUTO 06003KT 7SM OVC021 09/07 A3015 RMK AO1 T00900070
KCGS 250118Z AUTO 02003KT 10SM OVC021 09/07 A3015 RMK AO1 T00920070
KCGS 250058Z AUTO 04003KT 10SM OVC023 09/07 A3014 RMK AO1 T00910070
KCGS 250038Z AUTO 05003KT 10SM OVC023 09/07 A3016 RMK AO1 T00930071
KCGS 250018Z AUTO 03003KT 10SM BKN012 OVC023 09/07 A3016 RMK AO1 T00940071
KCGS 242358Z AUTO 06003KT 10SM BKN012 OVC022 10/07 A3016 RMK AO1 T00950071
KCGS 242338Z AUTO 06004KT 10SM SCT012 OVC022 09/07 A3014 RMK AO1 T00940071
KCGS 242318Z AUTO 03004KT 10SM OVC022 09/07 A3013 RMK AO1 T00930072
KCGS 242258Z AUTO 03005KT 10SM SCT013 OVC022 10/08 A3013 RMK AO1 T00950075
KCGS 242238Z AUTO 05005KT 10SM SCT011 OVC022 10/08 A3013 RMK AO1 T00950076
KCGS 242218Z AUTO 04003KT 7SM SCT013 OVC022 10/08 A3012 RMK AO1 T00970080
KCGS 242158Z AUTO 05004KT 7SM OVC020 10/08 A3011 RMK AO1 T00980081
KCGS 242138Z AUTO 06003KT 10SM SCT012 OVC020 10/08 A3012 RMK AO1 T01000081
KCGS 242118Z AUTO 03003KT 7SM SCT009 OVC015 10/09 A3012 RMK AO1 T01010086
KCGS 242058Z AUTO 05003KT 7SM BKN011 BKN014 OVC021 10/09 A3013 RMK AO1 T01010086
KCGS 242038Z AUTO 00000KT 5SM BKN011 OVC014 10/09 A3013 RMK AO1 T01010088
KCGS 242018Z AUTO 00000KT 5SM OVC011 10/09 A3013 RMK AO1 T01000087
KCGS 241958Z AUTO 00000KT 5SM OVC011 10/09 A3012 RMK AO1 T00980088
KCGS 241938Z AUTO 07003KT 5SM OVC011 10/09 A3012 RMK AO1 T00980088
KCGS 241918Z AUTO 03006KT 360V070 5SM OVC009 10/09 A3013 RMK AO1 T00980087
KCGS 241838Z AUTO 00000KT 5SM OVC005 10/09 A3014 RMK AO1 T00960088
KCGS 241818Z AUTO 05003KT 5SM OVC005 10/09 A3014 RMK AO1 T00970090
KCGS 241758Z AUTO 35003KT 5SM OVC005 10/09 A3015 RMK AO1 T00960090
KCGS 241738Z AUTO 01005KT 5SM OVC005 10/09 A3013 RMK AO1 T00960091
KCGS 241718Z AUTO 03004KT 5SM OVC005 10/09 A3013 RMK AO1 T00950090
KCGS 241658Z AUTO 04003KT 5SM OVC003 10/09 A3016 RMK AO1 T00950091
KCGS 241638Z AUTO 05003KT 4SM OVC003 09/09 A3016 RMK AO1 T00930091
KCGS 241618Z AUTO 05005KT 3SM OVC003 09/09 A3016 RMK AO1 T00930091
KCGS 241558Z AUTO 03004KT 2SM OVC003 09/09 A3016 RMK AO1 T00910090
KCGS 241538Z AUTO 02004KT 3SM OVC003 09/09 A3017 RMK AO1 T00900089
KCGS 241518Z AUTO 36003KT 2 1/2SM OVC003 09/09 A3017 RMK AO1 T00900090
KCGS 241458Z AUTO 00000KT 3SM OVC003 09/09 A3018 RMK AO1 T00900090
KCGS 241438Z AUTO 00000KT 3SM OVC003 09/09 A3017 RMK AO1 T00910090
KCGS 241418Z AUTO 00000KT 1 3/4SM OVC001 09/09 A3017 RMK AO1 T00880087
KCGS 241358Z AUTO 00000KT 1 1/2SM OVC001 09/09 A3018 RMK AO1 T00880086